createdAt,value
2019-04-28T00:02:26.853Z,17.31
2019-04-28T00:04:58.450Z,17.33
2019-04-28T00:07:29.953Z,17.35
2019-04-28T00:10:02.736Z,17.35
2019-04-28T00:12:35.663Z,17.36
2019-04-28T00:15:10.765Z,17.25
2019-04-28T00:17:42.475Z,17.27
2019-04-28T00:20:15.402Z,17.36
2019-04-28T00:22:51.582Z,17.30
2019-04-28T00:25:24.679Z,17.29
2019-04-28T00:27:56.261Z,17.17
2019-04-28T00:30:27.805Z,17.18
2019-04-28T00:32:59.323Z,17.07
2019-04-28T00:35:31.883Z,16.95
2019-04-28T00:38:04.061Z,16.97
2019-04-28T00:40:35.520Z,16.97
2019-04-28T00:43:06.964Z,16.81
2019-04-28T00:45:38.413Z,16.82
2019-04-28T00:48:10.966Z,16.78
2019-04-28T00:50:43.789Z,16.77
2019-04-28T00:53:15.344Z,16.82
2019-04-28T00:55:46.849Z,16.83
2019-04-28T00:58:18.262Z,16.86
2019-04-28T01:00:51.469Z,16.89
2019-04-28T01:03:23.972Z,16.97
2019-04-28T01:05:55.455Z,17.11
2019-04-28T01:08:26.879Z,17.27
2019-04-28T01:10:58.353Z,17.31
2019-04-28T01:13:31.835Z,17.31
2019-04-28T01:16:05.126Z,17.35
2019-04-28T01:18:44.076Z,17.42
2019-04-28T01:21:15.564Z,17.46
2019-04-28T01:23:47.425Z,17.43
2019-04-28T01:26:20.005Z,17.34
2019-04-28T01:28:51.518Z,17.28
2019-04-28T01:31:27.189Z,17.23
2019-04-28T01:34:16.713Z,17.08
2019-04-28T01:36:49.578Z,16.83
2019-04-28T01:39:21.373Z,16.68
2019-04-28T01:41:52.732Z,16.54
2019-04-28T01:44:24.149Z,16.55
2019-04-28T01:46:55.614Z,16.54
2019-04-28T01:49:26.991Z,16.51
2019-04-28T01:52:01.133Z,16.53
2019-04-28T01:54:32.676Z,16.55
2019-04-28T01:57:04.025Z,16.51
2019-04-28T01:59:35.395Z,16.46
2019-04-28T02:02:07.067Z,16.48
2019-04-28T02:04:40.204Z,16.46
2019-04-28T02:07:11.751Z,16.44
2019-04-28T02:09:43.202Z,16.42
2019-04-28T02:12:15.372Z,16.50
2019-04-28T02:14:46.937Z,16.54
2019-04-28T02:17:20.184Z,16.48
2019-04-28T02:19:51.722Z,16.34
2019-04-28T02:22:27.460Z,16.40
2019-04-28T02:25:00.314Z,16.33
2019-04-28T02:27:31.970Z,16.35
2019-04-28T02:30:04.483Z,16.44
2019-04-28T02:32:35.967Z,16.40
2019-04-28T02:35:10.532Z,16.52
2019-04-28T02:37:41.276Z,16.58
2019-04-28T02:40:12.700Z,16.51
2019-04-28T02:42:44.152Z,16.57
2019-04-28T02:45:21.489Z,16.59
2019-04-28T02:47:53.200Z,16.59
2019-04-28T02:50:26.293Z,16.53
2019-04-28T02:53:01.614Z,16.61
2019-04-28T02:55:32.964Z,16.53
2019-04-28T02:58:04.285Z,16.58
2019-04-28T03:00:35.573Z,16.55
2019-04-28T03:03:07.006Z,16.60
2019-04-28T03:05:40.989Z,16.61
2019-04-28T03:08:11.565Z,16.60
2019-04-28T03:10:42.900Z,16.66
2019-04-28T03:13:14.196Z,16.61
2019-04-28T03:15:45.616Z,16.68
2019-04-28T03:18:16.823Z,16.68
2019-04-28T03:20:48.104Z,16.79
2019-04-28T03:23:20.627Z,16.73
2019-04-28T03:25:53.883Z,16.70
2019-04-28T03:28:26.908Z,16.65
2019-04-28T03:31:13.140Z,16.53
2019-04-28T03:33:41.952Z,16.51
2019-04-28T03:36:14.782Z,16.63
2019-04-28T03:38:42.598Z,16.71
2019-04-28T03:41:13.854Z,16.71
2019-04-28T03:43:45.323Z,16.98
2019-04-28T03:46:20.991Z,16.94
2019-04-28T03:48:52.489Z,16.85
2019-04-28T03:51:23.837Z,16.84
2019-04-28T03:53:55.239Z,17.03
2019-04-28T03:56:26.741Z,17.40
2019-04-28T03:59:00.461Z,17.58
2019-04-28T04:01:31.422Z,17.95
2019-04-28T04:04:03.632Z,17.80
2019-04-28T04:06:37.986Z,17.90
2019-04-28T04:09:11.252Z,18.22
2019-04-28T04:11:44.356Z,18.01
2019-04-28T04:14:21.107Z,17.86
2019-04-28T04:17:00.277Z,17.88
2019-04-28T04:19:34.358Z,17.81
2019-04-28T04:22:05.707Z,17.91
2019-04-28T04:24:37.233Z,17.59
2019-04-28T04:27:10.761Z,17.87
2019-04-28T04:29:43.661Z,18.21
2019-04-28T04:32:23.091Z,17.83
2019-04-28T04:34:50.428Z,17.86
2019-04-28T04:37:21.197Z,17.92
2019-04-28T04:39:52.622Z,18.00
2019-04-28T04:42:23.930Z,17.82
2019-04-28T04:44:55.459Z,18.27
2019-04-28T04:47:26.833Z,18.30
2019-04-28T04:50:00.282Z,18.28
2019-04-28T04:52:31.449Z,18.37
2019-04-28T04:55:02.960Z,18.25
2019-04-28T04:57:34.348Z,18.10
2019-04-28T05:00:10.138Z,17.69
2019-04-28T05:02:51.125Z,17.50
2019-04-28T05:05:18.079Z,17.79
2019-04-28T05:07:50.737Z,18.09
2019-04-28T05:10:22.215Z,18.42
2019-04-28T05:12:53.618Z,18.25
2019-04-28T05:15:26.029Z,17.77
2019-04-28T05:17:57.347Z,17.83
2019-04-28T05:20:30.267Z,17.70
2019-04-28T05:23:03.604Z,17.82
2019-04-28T05:25:39.915Z,17.65
2019-04-28T05:28:11.310Z,17.73
2019-04-28T05:30:43.080Z,17.70
2019-04-28T05:33:16.274Z,17.72
2019-04-28T05:35:50.096Z,17.63
2019-04-28T05:38:22.633Z,17.82
2019-04-28T05:40:54.345Z,17.67
2019-04-28T05:43:25.746Z,17.38
2019-04-28T05:45:56.980Z,17.49
2019-04-28T05:48:46.564Z,17.39
2019-04-28T05:51:19.949Z,17.16
2019-04-28T05:53:53.881Z,17.07
2019-04-28T05:56:27.034Z,17.03
2019-04-28T05:59:00.635Z,17.06
2019-04-28T06:01:33.981Z,16.95
2019-04-28T06:04:05.507Z,16.75
2019-04-28T06:06:40.406Z,16.76
2019-04-28T06:09:22.409Z,17.00
2019-04-28T06:11:54.628Z,16.94
2019-04-28T06:14:26.213Z,16.84
2019-04-28T06:16:57.609Z,16.97
2019-04-28T06:19:30.201Z,17.10
2019-04-28T06:22:01.654Z,17.12
2019-04-28T06:24:33.114Z,16.94
2019-04-28T06:27:04.559Z,17.31
2019-04-28T06:29:36.113Z,17.29
2019-04-28T06:32:08.027Z,16.98
2019-04-28T06:34:42.197Z,16.99
2019-04-28T06:37:13.563Z,16.75
2019-04-28T06:39:47.306Z,16.72
2019-04-28T06:42:17.735Z,16.63
2019-04-28T06:44:48.925Z,16.49
2019-04-28T06:47:20.275Z,16.37
2019-04-28T06:49:51.786Z,16.48
2019-04-28T06:52:23.275Z,16.47
2019-04-28T06:54:54.685Z,16.29
2019-04-28T06:57:27.217Z,16.02
2019-04-28T06:59:58.588Z,15.95
2019-04-28T07:02:30.036Z,16.06
2019-04-28T07:05:02.554Z,15.98
2019-04-28T07:07:34.314Z,15.76
2019-04-28T07:10:07.251Z,15.90
2019-04-28T07:12:38.850Z,15.76
2019-04-28T07:15:11.488Z,15.90
2019-04-28T07:17:43.162Z,16.20
2019-04-28T07:20:25.586Z,16.08
2019-04-28T07:22:57.082Z,16.21
2019-04-28T07:25:29.658Z,16.51
2019-04-28T07:28:01.180Z,16.86
2019-04-28T07:30:32.826Z,17.37
2019-04-28T07:33:04.642Z,17.22
2019-04-28T07:35:36.256Z,17.46
2019-04-28T07:38:07.805Z,17.85
2019-04-28T07:40:39.244Z,17.66
2019-04-28T07:43:10.871Z,18.06
2019-04-28T07:45:43.559Z,17.96
2019-04-28T07:48:15.355Z,18.47
2019-04-28T07:50:46.835Z,18.86
2019-04-28T07:53:20.020Z,17.92
2019-04-28T07:55:51.502Z,17.80
2019-04-28T07:58:22.923Z,17.50
2019-04-28T08:00:54.377Z,17.49
2019-04-28T08:03:25.840Z,18.03
2019-04-28T08:05:57.302Z,18.36
2019-04-28T08:08:28.727Z,18.39
2019-04-28T08:11:00.213Z,18.41
2019-04-28T08:13:31.734Z,18.35
2019-04-28T08:16:03.081Z,18.57
2019-04-28T08:18:35.776Z,18.85
2019-04-28T08:21:07.136Z,18.84
2019-04-28T08:23:47.067Z,18.94
2019-04-28T08:26:12.927Z,19.14
2019-04-28T08:28:44.465Z,19.01
2019-04-28T08:31:17.701Z,19.13
2019-04-28T08:34:01.676Z,19.03
2019-04-28T08:36:23.809Z,19.19
2019-04-28T08:38:55.074Z,19.33
2019-04-28T08:41:26.451Z,19.76
2019-04-28T08:43:57.741Z,19.74
2019-04-28T08:46:30.780Z,20.05
2019-04-28T08:49:02.071Z,20.66
2019-04-28T08:51:33.450Z,20.39
2019-04-28T08:54:04.899Z,20.21
2019-04-28T08:56:36.153Z,20.66
2019-04-28T08:59:07.568Z,20.87
2019-04-28T09:01:38.825Z,21.35
2019-04-28T09:04:15.514Z,21.41
2019-04-28T09:06:43.238Z,21.67
2019-04-28T09:09:16.129Z,21.58
2019-04-28T09:11:47.349Z,21.88
2019-04-28T09:14:18.733Z,21.68
2019-04-28T09:16:51.088Z,21.70
2019-04-28T09:19:22.453Z,21.54
2019-04-28T09:21:53.797Z,22.03
2019-04-28T09:24:25.097Z,21.89
2019-04-28T09:26:56.478Z,21.68
2019-04-28T09:29:28.062Z,21.62
2019-04-28T09:31:59.513Z,21.40
2019-04-28T09:34:30.954Z,21.36
2019-04-28T09:37:02.255Z,21.16
2019-04-28T09:39:47.155Z,21.22
2019-04-28T09:42:33.386Z,21.28
2019-04-28T09:45:16.061Z,21.33
2019-04-28T09:47:47.596Z,21.34
2019-04-28T09:50:18.889Z,21.44
2019-04-28T09:52:50.176Z,21.67
2019-04-28T09:55:21.594Z,21.70
2019-04-28T09:57:54.798Z,21.26
2019-04-28T10:00:25.551Z,21.31
2019-04-28T10:02:56.738Z,21.20
2019-04-28T10:05:28.131Z,21.17
2019-04-28T10:07:59.710Z,21.40
2019-04-28T10:10:31.152Z,21.23
2019-04-28T10:13:02.571Z,21.64
2019-04-28T10:15:34.013Z,21.66
2019-04-28T10:18:05.268Z,21.26
2019-04-28T10:20:36.581Z,21.97
2019-04-28T10:23:07.909Z,21.66
2019-04-28T10:25:39.135Z,21.36
2019-04-28T10:28:10.712Z,21.18
2019-04-28T10:30:42.070Z,21.51
2019-04-28T10:33:13.675Z,21.53
2019-04-28T10:35:45.225Z,21.78
2019-04-28T10:38:16.689Z,22.04
2019-04-28T10:40:55.558Z,21.94
2019-04-28T10:43:27.044Z,22.36
2019-04-28T10:45:59.360Z,21.94
2019-04-28T10:48:31.191Z,22.14
2019-04-28T10:51:02.536Z,21.78
2019-04-28T10:53:33.987Z,21.66
2019-04-28T10:56:05.438Z,22.00
2019-04-28T10:58:36.808Z,22.12
2019-04-28T11:01:08.390Z,22.12
2019-04-28T11:03:40.887Z,22.81
2019-04-28T11:06:12.698Z,23.11
2019-04-28T11:08:45.787Z,22.71
2019-04-28T11:11:18.955Z,23.02
2019-04-28T11:13:50.237Z,22.58
2019-04-28T11:16:23.224Z,22.57
2019-04-28T11:18:54.645Z,22.72
2019-04-28T11:21:25.991Z,22.99
2019-04-28T11:23:57.614Z,22.63
2019-04-28T11:26:29.199Z,22.49
2019-04-28T11:29:00.706Z,21.48
2019-04-28T11:31:32.164Z,21.58
2019-04-28T11:34:05.229Z,21.63
2019-04-28T11:36:36.060Z,21.71
2019-04-28T11:39:10.020Z,21.60
2019-04-28T11:41:43.045Z,22.02
2019-04-28T11:44:14.614Z,22.56
2019-04-28T11:46:46.136Z,21.57
2019-04-28T11:49:17.632Z,22.30
2019-04-28T11:51:49.274Z,22.72
2019-04-28T11:54:20.796Z,22.79
2019-04-28T11:56:52.297Z,22.35
2019-04-28T11:59:23.895Z,22.24
2019-04-28T12:01:55.542Z,22.01
2019-04-28T12:04:27.009Z,22.06
2019-04-28T12:06:58.448Z,21.70
2019-04-28T12:09:34.257Z,22.20
2019-04-28T12:12:08.721Z,22.51
2019-04-28T12:14:41.860Z,22.34
2019-04-28T12:17:27.025Z,22.32
2019-04-28T12:20:00.302Z,21.73
2019-04-28T12:22:31.128Z,22.18
2019-04-28T12:25:02.148Z,21.93
2019-04-28T12:27:33.798Z,21.68
2019-04-28T12:30:05.953Z,21.18
2019-04-28T12:32:37.628Z,21.37
2019-04-28T12:35:09.274Z,21.35
2019-04-28T12:37:40.701Z,21.18
2019-04-28T12:40:12.658Z,20.90
2019-04-28T12:42:44.275Z,21.02
2019-04-28T12:45:17.323Z,20.86
2019-04-28T12:47:48.732Z,21.08
2019-04-28T12:50:21.958Z,20.74
2019-04-28T12:52:53.461Z,20.68
2019-04-28T12:55:24.976Z,20.63
2019-04-28T12:57:56.566Z,20.68
2019-04-28T13:00:29.550Z,20.57
2019-04-28T13:03:18.717Z,20.36
2019-04-28T13:06:01.579Z,20.54
2019-04-28T13:08:24.969Z,20.44
2019-04-28T13:10:56.452Z,20.34
2019-04-28T13:13:28.014Z,20.29
2019-04-28T13:15:59.471Z,20.35
2019-04-28T13:18:31.062Z,20.52
2019-04-28T13:21:02.345Z,20.82
2019-04-28T13:23:34.742Z,20.65
2019-04-28T13:26:05.968Z,20.58
2019-04-28T13:28:37.251Z,20.61
2019-04-28T13:31:08.572Z,20.60
2019-04-28T13:33:53.816Z,20.67
2019-04-28T13:36:15.016Z,20.59
2019-04-28T13:38:45.395Z,20.33
2019-04-28T13:41:16.505Z,20.34
2019-04-28T13:43:47.887Z,20.43
2019-04-28T13:46:19.141Z,20.42
2019-04-28T13:48:50.476Z,20.29
2019-04-28T13:51:21.967Z,20.41
2019-04-28T13:53:53.559Z,20.70
2019-04-28T13:56:25.022Z,20.48
2019-04-28T13:58:58.109Z,20.60
2019-04-28T14:01:31.239Z,20.60
2019-04-28T14:04:16.417Z,20.61
2019-04-28T14:06:49.513Z,20.55
2019-04-28T14:09:20.773Z,20.70
2019-04-28T14:11:52.328Z,20.73
2019-04-28T14:14:24.139Z,20.88
2019-04-28T14:16:55.645Z,20.80
2019-04-28T14:19:26.998Z,20.85
2019-04-28T14:21:58.383Z,20.72
2019-04-28T14:24:29.819Z,20.77
2019-04-28T14:27:02.335Z,20.80
2019-04-28T14:29:33.854Z,20.80
2019-04-28T14:32:05.283Z,20.67
2019-04-28T14:34:36.905Z,20.64
2019-04-28T14:37:08.352Z,20.89
2019-04-28T14:39:39.978Z,20.81
2019-04-28T14:42:11.437Z,21.03
2019-04-28T14:44:42.885Z,20.89
2019-04-28T14:47:14.389Z,20.76
2019-04-28T14:49:45.786Z,20.77
2019-04-28T14:52:17.306Z,20.75
2019-04-28T14:54:49.801Z,20.85
2019-04-28T14:57:21.303Z,21.33
2019-04-28T14:59:52.710Z,21.34
2019-04-28T15:02:43.117Z,21.08
2019-04-28T15:05:19.166Z,20.96
2019-04-28T15:08:08.545Z,21.02
2019-04-28T15:10:53.742Z,20.85
2019-04-28T15:13:26.185Z,20.89
2019-04-28T15:15:57.551Z,20.76
2019-04-28T15:18:29.333Z,20.92
2019-04-28T15:21:00.738Z,20.81
2019-04-28T15:23:32.202Z,20.75
2019-04-28T15:26:03.705Z,20.70
2019-04-28T15:28:35.061Z,20.51
2019-04-28T15:31:06.559Z,20.50
2019-04-28T15:33:37.970Z,20.34
2019-04-28T15:36:09.620Z,20.48
2019-04-28T15:38:41.159Z,20.48
2019-04-28T15:41:21.526Z,20.47
2019-04-28T15:43:45.647Z,20.52
2019-04-28T15:46:17.380Z,20.46
2019-04-28T15:48:49.061Z,20.36
2019-04-28T15:51:20.551Z,20.29
2019-04-28T15:53:52.180Z,20.24
2019-04-28T15:56:25.281Z,20.10
2019-04-28T15:58:56.962Z,19.93
2019-04-28T16:01:28.452Z,19.93
2019-04-28T16:03:59.991Z,19.88
2019-04-28T16:06:31.473Z,19.78
2019-04-28T16:09:03.247Z,19.68
2019-04-28T16:11:35.555Z,19.65
2019-04-28T16:14:06.855Z,19.58
2019-04-28T16:16:39.404Z,19.49
2019-04-28T16:19:10.916Z,19.42
2019-04-28T16:21:42.526Z,19.37
2019-04-28T16:24:14.230Z,19.28
2019-04-28T16:26:45.728Z,19.23
2019-04-28T16:29:17.218Z,19.17
2019-04-28T16:31:48.877Z,19.12
2019-04-28T16:34:20.423Z,19.10
2019-04-28T16:36:51.790Z,18.99
2019-04-28T16:39:23.308Z,18.90
2019-04-28T16:41:54.919Z,18.80
2019-04-28T16:44:26.438Z,18.75
2019-04-28T16:46:57.890Z,18.64
2019-04-28T16:49:29.319Z,18.58
2019-04-28T16:52:00.733Z,18.46
2019-04-28T16:54:32.376Z,18.44
2019-04-28T16:57:12.516Z,18.37
2019-04-28T16:59:51.312Z,18.26
2019-04-28T17:02:27.349Z,18.19
2019-04-28T17:04:58.907Z,18.22
2019-04-28T17:07:30.368Z,18.35
2019-04-28T17:10:03.011Z,18.35
2019-04-28T17:12:34.497Z,18.41
2019-04-28T17:15:07.252Z,18.43
2019-04-28T17:17:38.735Z,18.47
2019-04-28T17:20:10.730Z,18.48
2019-04-28T17:22:42.202Z,18.51
2019-04-28T17:25:13.689Z,18.51
2019-04-28T17:27:45.052Z,18.52
2019-04-28T17:30:17.403Z,18.55
2019-04-28T17:32:49.532Z,18.63
2019-04-28T17:35:22.036Z,18.63
2019-04-28T17:38:06.010Z,18.63
2019-04-28T17:40:29.050Z,18.63
2019-04-28T17:43:00.584Z,18.62
2019-04-28T17:45:32.112Z,18.63
2019-04-28T17:48:05.433Z,18.61
2019-04-28T17:50:37.389Z,18.57
2019-04-28T17:53:08.810Z,18.53
2019-04-28T17:55:40.153Z,18.54
2019-04-28T17:58:11.575Z,18.56
2019-04-28T18:00:47.533Z,18.57
2019-04-28T18:03:20.614Z,18.63
2019-04-28T18:05:56.643Z,18.56
2019-04-28T18:08:28.236Z,18.55
2019-04-28T18:10:59.730Z,18.54
2019-04-28T18:13:31.332Z,18.51
2019-04-28T18:16:13.574Z,18.50
2019-04-28T18:18:46.846Z,18.43
2019-04-28T18:21:18.207Z,18.41
2019-04-28T18:23:49.618Z,18.38
2019-04-28T18:26:21.094Z,18.38
2019-04-28T18:28:52.546Z,18.29
2019-04-28T18:31:40.625Z,18.29
2019-04-28T18:34:29.854Z,18.29
2019-04-28T18:37:14.661Z,18.28
2019-04-28T18:40:03.867Z,18.20
2019-04-28T18:42:41.101Z,18.07
2019-04-28T18:45:12.982Z,18.10
2019-04-28T18:47:44.485Z,18.09
2019-04-28T18:50:16.042Z,18.03
2019-04-28T18:52:47.702Z,17.99
2019-04-28T18:55:19.148Z,17.90
2019-04-28T18:57:50.753Z,17.85
2019-04-28T19:00:23.795Z,17.78
2019-04-28T19:02:55.355Z,17.76
2019-04-28T19:05:28.545Z,17.73
2019-04-28T19:08:01.673Z,17.72
2019-04-28T19:10:40.297Z,17.68
2019-04-28T19:13:12.869Z,17.63
2019-04-28T19:15:48.909Z,17.59
2019-04-28T19:18:22.175Z,17.51
2019-04-28T19:20:53.449Z,17.46
2019-04-28T19:23:24.813Z,17.48
2019-04-28T19:25:56.163Z,17.47
2019-04-28T19:28:27.592Z,17.46
2019-04-28T19:30:59.130Z,17.44
2019-04-28T19:33:30.589Z,17.43
2019-04-28T19:36:01.923Z,17.35
2019-04-28T19:38:33.378Z,17.28
2019-04-28T19:41:04.835Z,17.34
2019-04-28T19:43:36.307Z,17.45
2019-04-28T19:46:09.480Z,17.41
2019-04-28T19:48:40.991Z,17.34
2019-04-28T19:51:12.383Z,17.39
2019-04-28T19:53:43.848Z,17.39
2019-04-28T19:56:19.720Z,17.43
2019-04-28T19:59:01.951Z,17.49
2019-04-28T20:01:34.194Z,17.54
2019-04-28T20:04:05.671Z,17.68
2019-04-28T20:06:37.091Z,17.69
2019-04-28T20:09:08.903Z,17.66
2019-04-28T20:11:41.107Z,17.62
2019-04-28T20:14:12.341Z,17.57
2019-04-28T20:16:43.866Z,17.60
2019-04-28T20:19:15.325Z,17.61
2019-04-28T20:21:46.736Z,17.59
2019-04-28T20:24:19.584Z,17.53
2019-04-28T20:26:52.299Z,17.52
2019-04-28T20:29:23.751Z,17.52
2019-04-28T20:31:55.322Z,17.42
2019-04-28T20:34:26.912Z,17.43
2019-04-28T20:37:02.697Z,17.33
2019-04-28T20:39:34.215Z,17.36
2019-04-28T20:42:16.381Z,17.33
2019-04-28T20:44:47.850Z,17.30
2019-04-28T20:47:19.320Z,17.30
2019-04-28T20:49:50.827Z,17.27
2019-04-28T20:52:22.221Z,17.18
2019-04-28T20:54:53.587Z,17.19
2019-04-28T20:57:25.227Z,17.22
2019-04-28T20:59:56.685Z,17.16
2019-04-28T21:02:28.097Z,17.23
2019-04-28T21:04:59.510Z,17.18
2019-04-28T21:07:30.927Z,17.26
2019-04-28T21:10:02.385Z,17.34
2019-04-28T21:12:34.863Z,17.20
2019-04-28T21:15:07.316Z,17.25
2019-04-28T21:17:38.753Z,17.17
2019-04-28T21:20:10.469Z,17.16
2019-04-28T21:22:41.841Z,17.09
2019-04-28T21:25:13.331Z,17.08
2019-04-28T21:27:44.783Z,17.09
2019-04-28T21:30:16.779Z,17.04
2019-04-28T21:32:48.401Z,17.01
2019-04-28T21:35:19.905Z,16.96
2019-04-28T21:37:51.332Z,16.97
2019-04-28T21:40:23.170Z,17.00
2019-04-28T21:43:05.033Z,16.98
2019-04-28T21:45:50.052Z,16.98
2019-04-28T21:48:33.063Z,16.95
2019-04-28T21:51:04.371Z,16.93
2019-04-28T21:53:36.065Z,17.02
2019-04-28T21:56:07.533Z,17.01
2019-04-28T21:58:38.978Z,17.00
2019-04-28T22:01:13.400Z,16.95
2019-04-28T22:03:46.900Z,16.88
2019-04-28T22:06:18.777Z,16.94
2019-04-28T22:08:50.431Z,16.89
2019-04-28T22:11:21.859Z,16.88
2019-04-28T22:13:53.483Z,16.84
2019-04-28T22:16:25.002Z,16.80
2019-04-28T22:18:56.514Z,16.87
2019-04-28T22:21:28.620Z,16.84
2019-04-28T22:24:01.776Z,16.78
2019-04-28T22:26:43.523Z,16.77
2019-04-28T22:29:14.986Z,16.76
2019-04-28T22:31:46.981Z,16.65
2019-04-28T22:34:18.534Z,16.55
2019-04-28T22:36:49.998Z,16.52
2019-04-28T22:39:21.543Z,16.60
2019-04-28T22:41:53.025Z,16.53
2019-04-28T22:44:24.543Z,16.52
2019-04-28T22:46:55.970Z,16.47
2019-04-28T22:49:27.511Z,16.47
2019-04-28T22:51:59.040Z,16.55
2019-04-28T22:54:35.367Z,16.51
2019-04-28T22:57:26.733Z,16.48
2019-04-28T22:59:59.805Z,16.49
2019-04-28T23:02:31.975Z,16.35
2019-04-28T23:05:05.735Z,16.41
2019-04-28T23:07:37.146Z,16.41
2019-04-28T23:10:09.414Z,16.41
2019-04-28T23:12:40.902Z,16.48
2019-04-28T23:15:13.997Z,16.41
2019-04-28T23:17:45.641Z,16.40
2019-04-28T23:20:17.081Z,16.41
2019-04-28T23:22:50.311Z,16.34
2019-04-28T23:25:21.904Z,16.36
2019-04-28T23:27:53.385Z,16.27
2019-04-28T23:30:36.626Z,16.31
2019-04-28T23:33:08.133Z,16.35
2019-04-28T23:35:39.932Z,16.26
2019-04-28T23:38:11.563Z,16.28
2019-04-28T23:40:44.602Z,16.29
2019-04-28T23:43:17.927Z,16.33
2019-04-28T23:45:49.345Z,16.27
2019-04-28T23:48:20.851Z,16.19
2019-04-28T23:50:53.902Z,16.06
2019-04-28T23:53:42.951Z,16.01
2019-04-28T23:56:14.465Z,15.90
2019-04-28T23:58:45.900Z,15.85
